Time;durP1;ratioP1;P1;durP2;ratioP2;P2;SDS_P1;SDS_P2;PMS_P1;PMS_P2;Temp;Humidity;BMP_temperature;BMP_pressure;BME280_temperature;BME280_humidity;BME280_pressure;Samples;Min_cycle;Max_cycle;Signal;HPM_P1;HPM_P2
2022/06/12 00:00:07;;;;;;;10.20;6.13;;;16.20;99.90;;;;;;4775449;30;20035;-89
2022/06/12 00:02:39;;;;;;;12.52;6.82;;;16.20;99.90;;;;;;4775533;30;20118;-87
2022/06/12 00:05:06;;;;;;;12.00;6.13;;;16.30;99.90;;;;;;4779161;30;20072;-89
2022/06/12 00:07:44;;;;;;;11.93;6.75;;;16.20;99.90;;;;;;4782284;30;20087;-88
2022/06/12 00:10:27;;;;;;;10.93;6.10;;;16.10;99.90;;;;;;4780989;30;20047;-89
2022/06/12 00:13:20;;;;;;;9.82;6.03;;;16.10;99.90;;;;;;4783016;30;20039;-89
2022/06/12 00:15:58;;;;;;;10.55;5.53;;;16.00;99.90;;;;;;4777026;30;20020;-89
2022/06/12 00:18:25;;;;;;;10.60;5.45;;;16.10;99.90;;;;;;4775604;30;20036;-90
2022/06/12 00:21:12;;;;;;;11.55;6.20;;;16.00;99.90;;;;;;4775431;30;20147;-88
2022/06/12 00:23:55;;;;;;;14.15;6.28;;;16.00;99.90;;;;;;4775149;30;20267;-88
2022/06/12 00:26:44;;;;;;;10.80;5.40;;;15.90;99.90;;;;;;4775182;29;20082;-89
2022/06/12 00:29:34;;;;;;;11.48;5.38;;;16.50;99.90;;;;;;4774449;30;20415;-89
2022/06/12 00:32:12;;;;;;;9.75;5.65;;;15.80;99.90;;;;;;4737574;30;20110;-89
2022/06/12 00:34:56;;;;;;;9.80;5.50;;;15.80;99.90;;;;;;4722538;30;20296;-89
2022/06/12 00:37:23;;;;;;;10.23;5.22;;;14.40;99.90;;;;;;4722469;30;20060;-90
2022/06/12 00:39:57;;;;;;;10.68;5.30;;;15.60;99.90;;;;;;4723115;30;20501;-89
2022/06/12 00:42:35;;;;;;;8.95;5.32;;;15.60;99.90;;;;;;4723963;29;20317;-91
2022/06/12 00:45:25;;;;;;;9.00;5.15;;;14.90;99.90;;;;;;4723029;30;20038;-90
2022/06/12 00:48:06;;;;;;;11.70;5.50;;;15.60;99.90;;;;;;4722441;30;20401;-89
2022/06/12 00:50:32;;;;;;;11.48;5.13;;;15.50;99.90;;;;;;4721803;30;20074;-89
2022/06/12 00:53:29;;;;;;;9.90;5.57;;;15.50;99.90;;;;;;4722821;30;20501;-90
2022/06/12 00:56:07;;;;;;;9.70;5.45;;;15.40;99.90;;;;;;4721911;30;20728;-89
2022/06/12 00:58:50;;;;;;;9.52;5.03;;;15.40;99.90;;;;;;4723032;30;20130;-89
2022/06/12 01:01:25;;;;;;;11.27;5.93;;;15.40;99.90;;;;;;4722094;30;20028;-88
2022/06/12 01:06:35;;;;;;;11.30;5.10;;;15.40;99.90;;;;;;4737337;30;20490;-88
2022/06/12 01:09:16;;;;;;;9.27;4.72;;;15.40;99.90;;;;;;4746112;30;20470;-87
2022/06/12 01:11:48;;;;;;;10.40;5.10;;;15.40;99.90;;;;;;4775608;30;20027;-87
2022/06/12 01:14:28;;;;;;;;;;;;;;;;;;;;;
2022/06/12 01:16:56;;;;;;;9.75;5.03;;;15.50;99.90;;;;;;4774629;30;20039;-87
2022/06/12 01:19:51;;;;;;;10.55;5.32;;;15.40;99.90;;;;;;4774365;30;20096;-89
2022/06/12 01:22:35;;;;;;;11.68;5.68;;;14.90;99.90;;;;;;4773851;30;20035;-89
2022/06/12 01:25:55;;;;;;;10.48;5.95;;;15.40;99.90;;;;;;4773973;30;20030;-87
2022/06/12 01:28:40;;;;;;;9.57;4.38;;;16.70;99.90;;;;;;4771132;30;20592;-89
2022/06/12 01:31:28;;;;;;;9.10;4.63;;;15.40;99.90;;;;;;4773995;30;20051;-89
2022/06/12 01:34:40;;;;;;;9.48;4.70;;;15.40;99.90;;;;;;4777793;30;20027;-89
2022/06/12 01:37:32;;;;;;;10.65;6.28;;;16.40;99.90;;;;;;4781271;30;20059;-89
2022/06/12 01:40:22;;;;;;;15.50;9.38;;;15.50;99.90;;;;;;4780749;30;20130;-89
2022/06/12 01:43:22;;;;;;;13.57;8.63;;;15.40;99.90;;;;;;4788524;30;20291;-89
2022/06/12 01:46:19;;;;;;;17.30;9.07;;;16.10;99.90;;;;;;4788665;30;20031;-87
2022/06/12 01:49:13;;;;;;;16.80;9.10;;;16.10;99.90;;;;;;4779488;30;20042;-88
2022/06/12 01:52:13;;;;;;;17.98;7.00;;;16.40;99.90;;;;;;4776872;30;20081;-87
2022/06/12 01:55:19;;;;;;;12.40;7.97;;;15.50;99.90;;;;;;4775711;30;20172;-89
2022/06/12 01:58:48;;;;;;;10.68;5.70;;;14.90;99.90;;;;;;4775153;30;20551;-87
2022/06/12 02:01:32;;;;;;;10.40;5.30;;;;;;;;;;4739337;30;20543;-89
2022/06/12 02:04:34;;;;;;;10.10;4.68;;;15.40;99.90;;;;;;4740441;30;20028;-89
2022/06/12 02:07:23;;;;;;;10.90;4.80;;;15.50;99.90;;;;;;4739611;30;20044;-88
2022/06/12 02:09:59;;;;;;;6.97;3.35;;;15.90;99.90;;;;;;4670111;30;20343;-86
2022/06/12 02:15:48;;;;;;;6.35;3.30;;;17.40;99.90;;;;;;4683352;30;20211;-87
2022/06/12 02:18:20;;;;;;;9.07;3.63;;;18.10;99.90;;;;;;4683034;30;20164;-86
2022/06/12 02:21:07;;;;;;;8.00;3.92;;;18.40;99.90;;;;;;4668607;30;20299;-88
2022/06/12 02:23:59;;;;;;;6.53;3.03;;;18.70;99.90;;;;;;4668823;30;20114;-86
2022/06/12 02:26:32;;;;;;;5.03;2.83;;;18.90;99.90;;;;;;4668297;30;20486;-87
2022/06/12 02:29:06;;;;;;;5.63;3.00;;;19.20;99.90;;;;;;4669013;30;20121;-85
2022/06/12 02:31:37;;;;;;;5.38;2.83;;;19.30;99.90;;;;;;4695742;30;20040;-86
2022/06/12 02:34:12;;;;;;;8.27;3.10;;;19.40;99.90;;;;;;4703049;30;20048;-87
2022/06/12 02:36:49;;;;;;;6.72;3.28;;;19.50;99.90;;;;;;4702734;30;20560;-85
2022/06/12 02:39:20;;;;;;;7.93;3.55;;;20.20;99.90;;;;;;4702770;30;20122;-88
2022/06/12 02:41:58;;;;;;;7.28;3.33;;;19.50;99.90;;;;;;4702721;30;20039;-89
2022/06/12 02:44:48;;;;;;;6.82;3.78;;;19.50;99.90;;;;;;4703202;30;20047;-87
2022/06/12 02:47:21;;;;;;;7.35;3.38;;;19.30;99.90;;;;;;4746878;30;20077;-84
2022/06/12 02:49:49;;;;;;;7.88;3.63;;;19.20;99.90;;;;;;4775515;30;20027;-85
2022/06/12 02:52:48;;;;;;;7.15;2.85;;;19.20;99.90;;;;;;4774716;30;20091;-84
2022/06/12 02:55:14;;;;;;;7.25;3.17;;;19.60;99.90;;;;;;4774000;30;20035;-85
2022/06/12 02:58:20;;;;;;;6.40;3.08;;;19.40;99.90;;;;;;4773781;30;20066;-85
2022/06/12 03:00:58;;;;;;;5.82;3.20;;;19.50;99.90;;;;;;4773718;29;20028;-87
2022/06/12 03:03:51;;;;;;;9.15;3.78;;;19.50;99.90;;;;;;4772207;30;20031;-86
2022/06/12 03:06:17;;;;;;;5.93;2.83;;;19.60;99.90;;;;;;4771866;30;20023;-86
2022/06/12 03:09:02;;;;;;;7.32;3.78;;;19.60;99.90;;;;;;4771840;30;20678;-85
2022/06/12 03:11:37;;;;;;;5.80;2.83;;;19.70;99.90;;;;;;4771455;30;20035;-85
2022/06/12 03:14:10;;;;;;;7.00;3.08;;;19.80;99.90;;;;;;4772063;30;20202;-86
2022/06/12 03:16:45;;;;;;;5.88;2.67;;;19.90;99.90;;;;;;4771974;30;20036;-86
2022/06/12 03:19:38;;;;;;;5.25;2.85;;;20.50;99.90;;;;;;4772486;30;20032;-84
2022/06/12 03:22:31;;;;;;;6.50;2.78;;;19.80;99.80;;;;;;4774028;30;20054;-86
2022/06/12 03:25:16;;;;;;;6.05;3.42;;;19.90;99.80;;;;;;4773801;30;20265;-85
2022/06/12 03:28:14;;;;;;;6.32;3.50;;;19.80;99.70;;;;;;4776901;30;20310;-88
2022/06/12 03:30:53;;;;;;;5.18;2.83;;;19.90;99.70;;;;;;4741385;30;20351;-86
2022/06/12 03:33:28;;;;;;;5.68;2.80;;;19.90;99.60;;;;;;4740922;29;20123;-89
2022/06/12 03:36:11;;;;;;;5.45;2.67;;;21.30;99.80;;;;;;4740645;30;20126;-85
2022/06/12 03:38:54;;;;;;;5.15;2.63;;;19.90;99.50;;;;;;4755584;30;20039;-86
2022/06/12 03:41:28;;;;;;;6.13;3.42;;;19.80;99.60;;;;;;4755874;30;20032;-85
2022/06/12 03:44:41;;;;;;;6.65;3.30;;;19.80;99.50;;;;;;4743290;30;20839;-84
2022/06/12 03:47:29;;;;;;;6.80;3.30;;;19.80;99.50;;;;;;4673704;30;20068;-87
2022/06/12 03:50:15;;;;;;;5.70;2.50;;;19.80;99.60;;;;;;4672785;30;20278;-84
2022/06/12 03:53:19;;;;;;;5.03;2.65;;;19.70;99.60;;;;;;4671460;30;20038;-88
2022/06/12 03:59:06;;;;;;;6.38;2.92;;;19.70;99.80;;;;;;4618277;30;20373;-86
2022/06/12 04:01:32;;;;;;;6.95;3.30;;;20.20;99.80;;;;;;4617322;30;20045;-85
2022/06/12 04:04:03;;;;;;;7.50;2.97;;;19.90;99.20;;;;;;4626266;24;20199;-88
2022/06/12 04:06:36;;;;;;;6.68;3.15;;;19.90;99.40;;;;;;4775197;30;20042;-87
2022/06/12 04:09:12;;;;;;;5.45;2.90;;;19.90;99.40;;;;;;4775824;30;20084;-85
2022/06/12 04:11:50;;;;;;;5.18;2.75;;;20.00;99.30;;;;;;4774735;30;20031;-86
2022/06/12 04:14:19;;;;;;;5.57;2.78;;;20.00;99.10;;;;;;4774831;30;20047;-87
2022/06/12 04:16:52;;;;;;;6.88;3.20;;;20.00;99.10;;;;;;4774562;30;20039;-85
2022/06/12 04:19:24;;;;;;;6.65;3.47;;;20.00;99.10;;;;;;4774627;30;20027;-84
2022/06/12 04:22:06;;;;;;;8.18;3.20;;;20.00;99.00;;;;;;4774377;30;20752;-86
2022/06/12 04:24:42;;;;;;;6.05;2.85;;;20.00;98.90;;;;;;4774371;30;20219;-85
2022/06/12 04:27:25;;;;;;;5.22;2.67;;;20.10;98.90;;;;;;4774151;30;20035;-85
2022/06/12 04:29:55;;;;;;;8.45;3.20;;;20.10;98.90;;;;;;4773930;30;20450;-86
2022/06/12 04:32:52;;;;;;;;;;;;;;;;;;;;;
2022/06/12 04:35:08;;;;;;;7.70;3.40;;;19.70;99.10;;;;;;4772945;30;20134;-84
2022/06/12 04:37:41;;;;;;;6.10;3.40;;;20.10;98.70;;;;;;4774678;29;20116;-85
2022/06/12 04:40:07;;;;;;;5.97;2.70;;;18.20;98.20;;;;;;4773604;30;20134;-85
2022/06/12 04:42:34;;;;;;;5.00;2.53;;;19.80;98.90;;;;;;4773607;30;20031;-85
2022/06/12 04:45:01;;;;;;;6.82;3.40;;;19.90;98.90;;;;;;4773886;30;20120;-86
2022/06/12 04:47:29;;;;;;;7.93;4.22;;;20.00;98.80;;;;;;4773838;30;20035;-85
2022/06/12 04:49:55;;;;;;;7.45;4.25;;;19.90;99.00;;;;;;4775600;30;20110;-85
2022/06/12 04:52:24;;;;;;;6.78;3.17;;;20.00;98.90;;;;;;4775483;30;20475;-85
2022/06/12 04:54:53;;;;;;;5.70;3.22;;;19.90;98.90;;;;;;4774418;30;20519;-90
2022/06/12 04:57:19;;;;;;;6.20;3.13;;;19.80;98.80;;;;;;4773943;30;20043;-88
2022/06/12 04:59:46;;;;;;;7.20;3.03;;;20.10;98.80;;;;;;4774112;30;20454;-86
2022/06/12 05:02:13;;;;;;;7.72;3.65;;;20.10;98.60;;;;;;4773598;30;20041;-88
2022/06/12 05:05:00;;;;;;;9.30;5.20;;;20.10;98.90;;;;;;4774154;29;20290;-85
2022/06/12 05:07:27;;;;;;;10.75;4.30;;;20.00;98.70;;;;;;4773623;30;20239;-84
2022/06/12 05:09:53;;;;;;;11.98;4.32;;;20.10;98.70;;;;;;4773260;30;20149;-86
2022/06/12 05:12:19;;;;;;;11.20;4.47;;;20.20;98.60;;;;;;4775119;30;20334;-85
2022/06/12 05:14:48;;;;;;;13.45;5.18;;;20.30;98.70;;;;;;4773693;30;20746;-87
2022/06/12 05:17:16;;;;;;;10.52;5.60;;;20.20;98.40;;;;;;4773120;30;20070;-86
2022/06/12 05:19:53;;;;;;;;;;;;;;;;;;;;;
2022/06/12 05:22:22;;;;;;;11.60;4.97;;;20.30;98.20;;;;;;4774240;30;20531;-86
2022/06/12 05:24:48;;;;;;;15.52;6.05;;;20.30;98.20;;;;;;4773196;30;20027;-86
2022/06/12 05:27:18;;;;;;;10.48;5.68;;;20.30;98.30;;;;;;4773805;30;20202;-84
2022/06/12 05:29:44;;;;;;;11.88;5.53;;;20.30;98.20;;;;;;4774775;30;20064;-84
2022/06/12 05:32:14;;;;;;;13.50;5.80;;;20.40;98.10;;;;;;4773251;30;20031;-85
2022/06/12 05:34:41;;;;;;;11.82;5.38;;;20.50;97.90;;;;;;4773204;30;20071;-85
2022/06/12 05:37:07;;;;;;;10.93;5.65;;;20.50;98.20;;;;;;4773112;30;20059;-87
2022/06/12 05:39:45;;;;;;;12.40;5.63;;;20.40;97.90;;;;;;4772856;30;20043;-84
2022/06/12 05:42:28;;;;;;;11.95;5.22;;;20.30;98.10;;;;;;4773224;30;20101;-85
2022/06/12 05:44:54;;;;;;;11.10;5.45;;;21.50;98.10;;;;;;4773170;30;20051;-85
2022/06/12 05:47:22;;;;;;;13.45;5.72;;;20.50;97.80;;;;;;4773069;30;20031;-85
2022/06/12 05:50:01;;;;;;;12.23;5.10;;;20.50;97.80;;;;;;4773460;29;20027;-84
2022/06/12 05:52:34;;;;;;;12.68;5.50;;;20.30;98.30;;;;;;4773086;30;20147;-86
2022/06/12 05:55:12;;;;;;;10.45;4.97;;;20.30;98.90;;;;;;4773238;30;20027;-87
2022/06/12 05:57:48;;;;;;;8.63;4.13;;;20.30;98.00;;;;;;4778596;24;20507;-84
2022/06/12 06:00:24;;;;;;;9.85;4.93;;;20.70;98.80;;;;;;4772463;30;20099;-84
2022/06/12 06:02:50;;;;;;;12.10;5.55;;;20.40;97.90;;;;;;4772528;30;20038;-86
2022/06/12 06:05:25;;;;;;;10.48;4.93;;;22.10;98.30;;;;;;4774604;30;20035;-85
2022/06/12 06:08:08;;;;;;;12.43;5.03;;;20.60;97.70;;;;;;4772840;30;20043;-85
2022/06/12 06:10:34;;;;;;;9.97;4.73;;;20.40;97.30;;;;;;4772877;30;20038;-86
2022/06/12 06:13:00;;;;;;;9.48;4.53;;;20.50;97.60;;;;;;4774581;30;20666;-86
2022/06/12 06:15:28;;;;;;;10.35;5.20;;;20.60;97.50;;;;;;4773071;30;20031;-89
2022/06/12 06:17:55;;;;;;;13.20;4.93;;;20.60;97.20;;;;;;4775410;30;20035;-83
2022/06/12 06:20:35;;;;;;;9.13;3.83;;;20.50;97.50;;;;;;4775041;30;20037;-84
2022/06/12 06:23:16;;;;;;;8.27;4.40;;;20.40;96.90;;;;;;4765359;24;20051;-86
2022/06/12 06:25:42;;;;;;;7.15;3.47;;;20.40;96.60;;;;;;4777949;30;20110;-84
2022/06/12 06:28:10;;;;;;;7.78;4.00;;;20.20;96.90;;;;;;4778226;30;20019;-86
2022/06/12 06:30:37;;;;;;;8.07;3.65;;;20.00;97.90;;;;;;4779053;30;20031;-82
2022/06/12 06:33:03;;;;;;;13.20;7.45;;;20.00;98.10;;;;;;4776373;30;20412;-87
2022/06/12 06:35:29;;;;;;;16.23;8.80;;;19.90;98.10;;;;;;4776344;30;20411;-83
2022/06/12 06:38:05;;;;;;;11.35;4.70;;;20.20;98.10;;;;;;4776114;29;20043;-87
2022/06/12 06:40:43;;;;;;;10.52;3.83;;;20.20;98.10;;;;;;4775284;30;20023;-84
2022/06/12 06:43:22;;;;;;;10.50;4.40;;;20.00;98.40;;;;;;4775104;30;20045;-83
2022/06/12 06:48:35;;;;;;;9.55;4.53;;;20.10;98.10;;;;;;4775235;30;20572;-85
2022/06/12 06:51:16;;;;;;;9.55;4.25;;;20.10;98.20;;;;;;4773624;30;20118;-88
2022/06/12 06:54:09;;;;;;;13.35;4.60;;;20.30;97.80;;;;;;4777023;30;20627;-87
2022/06/12 06:56:35;;;;;;;8.98;3.90;;;19.40;97.60;;;;;;4775170;30;20222;-87
2022/06/12 06:59:02;;;;;;;10.88;3.58;;;20.20;99.20;;;;;;4777250;30;20138;-88
2022/06/12 07:01:42;;;;;;;7.55;3.58;;;20.00;98.40;;;;;;4778072;29;20038;-88
2022/06/12 07:04:08;;;;;;;7.32;3.17;;;;;;;;;;4783998;24;20256;-89
2022/06/12 07:06:38;;;;;;;7.72;3.38;;;19.90;98.50;;;;;;4776031;30;20500;-87
2022/06/12 07:09:29;;;;;;;8.45;3.97;;;19.90;99.00;;;;;;4776962;30;20323;-88
2022/06/12 07:12:01;;;;;;;8.63;4.38;;;19.90;99.10;;;;;;4736583;30;20072;-87
2022/06/12 07:15:05;;;;;;;10.13;5.15;;;19.80;99.30;;;;;;4723718;30;20040;-88
2022/06/12 07:17:31;;;;;;;7.40;3.70;;;20.20;99.20;;;;;;4721672;30;20122;-88
2022/06/12 07:20:01;;;;;;;6.40;3.40;;;19.80;99.10;;;;;;4721639;30;20401;-88
2022/06/12 07:24:56;;;;;;;6.93;2.83;;;20.00;98.00;;;;;;5081531;24;20112;-93
2022/06/12 07:27:40;;;;;;;7.38;3.00;;;19.90;97.40;;;;;;4778911;30;20427;-91
2022/06/12 07:30:08;;;;;;;7.53;3.50;;;20.10;98.60;;;;;;4776207;30;20035;-87
2022/06/12 07:32:37;;;;;;;5.82;3.50;;;19.80;96.70;;;;;;4775698;30;20035;-86
2022/06/12 07:37:50;;;;;;;5.53;2.88;;;18.40;97.10;;;;;;4784143;24;20596;-86
2022/06/12 07:40:57;;;;;;;8.32;3.05;;;20.80;98.10;;;;;;4778742;30;20383;-93
2022/06/12 07:43:24;;;;;;;8.57;2.60;;;20.20;97.20;;;;;;4783453;24;20055;-90
2022/06/12 07:46:08;;;;;;;5.43;3.25;;;19.80;96.30;;;;;;4777286;30;20035;-88
2022/06/12 07:48:34;;;;;;;6.03;2.85;;;20.20;96.70;;;;;;4777165;30;20122;-88
2022/06/12 07:51:04;;;;;;;4.90;2.33;;;20.20;96.40;;;;;;4778509;30;20107;-88
2022/06/12 07:53:31;;;;;;;6.70;2.75;;;20.20;96.60;;;;;;4776214;30;20020;-87
2022/06/12 07:56:00;;;;;;;4.25;2.80;;;20.30;96.50;;;;;;4777622;30;20107;-92
2022/06/12 07:58:25;;;;;;;7.18;2.83;;;20.40;96.60;;;;;;4776843;30;20061;-88
2022/06/12 08:00:58;;;;;;;5.93;2.72;;;20.40;95.80;;;;;;4776742;30;20024;-89
2022/06/12 08:03:25;;;;;;;6.22;2.90;;;20.40;96.10;;;;;;4776394;30;20050;-89
2022/06/12 08:05:51;;;;;;;4.93;2.80;;;20.50;96.20;;;;;;4777643;30;20034;-88
2022/06/12 08:08:18;;;;;;;5.60;2.25;;;20.50;96.30;;;;;;4776744;30;20753;-91
2022/06/12 08:10:44;;;;;;;6.40;3.33;;;20.50;96.50;;;;;;4776449;30;20043;-87
2022/06/12 08:13:16;;;;;;;6.85;3.58;;;20.50;96.60;;;;;;4775326;29;20235;-90
2022/06/12 08:15:48;;;;;;;6.25;2.72;;;20.60;96.80;;;;;;4775904;30;20043;-89
2022/06/12 08:18:22;;;;;;;6.25;2.92;;;20.70;96.80;;;;;;4776382;30;20667;-92
2022/06/12 08:20:53;;;;;;;9.38;3.30;;;20.80;96.30;;;;;;4776282;30;20076;-87
2022/06/12 08:23:37;;;;;;;8.70;3.20;;;20.90;96.30;;;;;;4775838;30;20551;-86
2022/06/12 08:26:11;;;;;;;6.53;2.80;;;20.90;95.80;;;;;;4775498;30;20037;-88
2022/06/12 08:28:55;;;;;;;8.07;3.50;;;21.50;95.80;;;;;;4775562;30;20971;-88
2022/06/12 08:31:28;;;;;;;6.70;3.33;;;20.00;95.60;;;;;;4775902;30;20523;-85
2022/06/12 08:34:06;;;;;;;7.47;3.80;;;21.00;96.10;;;;;;4775551;30;20093;-84
2022/06/12 08:36:40;;;;;;;7.38;3.30;;;20.70;96.60;;;;;;4776277;30;20122;-92
2022/06/12 08:39:17;;;;;;;8.63;4.25;;;20.70;96.10;;;;;;4778073;30;20714;-89
2022/06/12 08:42:06;;;;;;;6.47;3.17;;;21.90;96.70;;;;;;4778561;30;20063;-90
2022/06/12 08:44:37;;;;;;;6.18;3.13;;;21.80;96.50;;;;;;4777987;30;20027;-90
2022/06/12 08:47:25;;;;;;;9.70;3.55;;;20.70;96.40;;;;;;4777707;30;20906;-87
2022/06/12 08:50:21;;;;;;;9.57;4.50;;;20.70;96.60;;;;;;4778249;30;20027;-90
2022/06/12 08:53:23;;;;;;;6.90;3.33;;;20.60;96.40;;;;;;4777998;30;20080;-91
2022/06/12 08:56:05;;;;;;;8.48;4.32;;;20.60;96.10;;;;;;4779265;30;20024;-91
2022/06/12 08:58:56;;;;;;;6.97;3.75;;;20.70;96.30;;;;;;4778270;30;20067;-86
2022/06/12 09:01:22;;;;;;;7.15;3.35;;;20.70;96.30;;;;;;4776612;30;20027;-87
2022/06/12 09:03:54;;;;;;;6.10;3.08;;;20.70;96.30;;;;;;4789398;29;20062;-86
2022/06/12 09:06:30;;;;;;;7.00;3.42;;;20.80;96.20;;;;;;4797985;30;20172;-86
2022/06/12 09:09:20;;;;;;;6.38;3.78;;;20.90;95.80;;;;;;4792856;30;20571;-87
2022/06/12 09:11:52;;;;;;;7.38;3.10;;;18.80;95.00;;;;;;4787113;30;20717;-83
2022/06/12 09:14:56;;;;;;;8.52;3.70;;;21.10;95.50;;;;;;4787239;30;20035;-89
2022/06/12 09:17:31;;;;;;;7.15;3.10;;;21.20;95.60;;;;;;4784775;30;20074;-87
2022/06/12 09:20:17;;;;;;;7.18;3.97;;;21.40;95.70;;;;;;4788340;30;20031;-82
2022/06/12 09:23:13;;;;;;;6.13;3.35;;;21.50;95.20;;;;;;4793766;30;20056;-82
2022/06/12 09:25:45;;;;;;;6.10;3.10;;;21.80;94.70;;;;;;4793143;30;20277;-85
2022/06/12 09:28:38;;;;;;;7.60;3.33;;;21.90;94.20;;;;;;4795605;30;20043;-84
2022/06/12 09:31:28;;;;;;;7.60;4.38;;;22.80;94.30;;;;;;4784098;30;20027;-87
2022/06/12 09:34:32;;;;;;;7.28;3.78;;;22.20;94.00;;;;;;4784534;30;20028;-86
2022/06/12 09:40:34;;;;;;;9.90;3.92;;;22.30;93.50;;;;;;4743674;30;20047;-90
2022/06/12 09:43:18;;;;;;;7.40;3.83;;;22.30;93.20;;;;;;4724336;30;20052;-84
2022/06/12 09:46:07;;;;;;;6.57;3.38;;;22.30;93.20;;;;;;4725196;30;20049;-88
2022/06/12 09:48:33;;;;;;;11.35;4.07;;;22.50;93.30;;;;;;4738549;30;20067;-83
2022/06/12 09:51:16;;;;;;;8.10;3.60;;;22.40;93.40;;;;;;4737440;30;20600;-88
2022/06/12 09:54:20;;;;;;;7.53;4.47;;;22.60;93.50;;;;;;4736689;30;20055;-85
2022/06/12 09:57:01;;;;;;;8.43;4.03;;;22.80;92.80;;;;;;4736582;30;20052;-89
2022/06/12 09:59:59;;;;;;;10.52;4.55;;;22.80;92.70;;;;;;4736418;29;20175;-87
2022/06/12 10:02:39;;;;;;;9.10;4.13;;;22.90;92.20;;;;;;4724796;30;20032;-85
2022/06/12 10:05:27;;;;;;;8.93;4.53;;;21.70;92.90;;;;;;4741273;30;20040;-86
2022/06/12 10:08:06;;;;;;;6.40;3.38;;;22.30;93.20;;;;;;4732995;30;20036;-86
2022/06/12 10:10:58;;;;;;;6.60;3.40;;;22.10;93.40;;;;;;4746710;30;20131;-87
2022/06/12 10:13:35;;;;;;;8.35;4.22;;;20.30;92.90;;;;;;4761606;30;20127;-86
2022/06/12 10:16:07;;;;;;;9.25;4.25;;;22.40;92.80;;;;;;4780859;30;20043;-86
2022/06/12 10:18:43;;;;;;;7.28;3.65;;;22.50;92.50;;;;;;4780783;30;20678;-88
2022/06/12 10:21:15;;;;;;;7.35;3.38;;;22.80;92.90;;;;;;4779812;30;20043;-88
2022/06/12 10:23:41;;;;;;;7.65;4.00;;;23.00;91.90;;;;;;4777525;30;20031;-88
2022/06/12 10:26:28;;;;;;;8.85;4.25;;;23.20;91.70;;;;;;4775777;30;20070;-90
2022/06/12 10:29:06;;;;;;;6.60;3.83;;;23.40;91.00;;;;;;4776169;30;20058;-87
2022/06/12 10:34:21;;;;;;;8.82;3.85;;;23.50;90.90;;;;;;4778307;24;20705;-84
2022/06/12 10:36:47;;;;;;;7.28;3.75;;;23.70;91.00;;;;;;4770958;30;20039;-89
2022/06/12 10:39:17;;;;;;;6.22;3.60;;;23.90;90.20;;;;;;4772423;30;20052;-88
2022/06/12 10:42:00;;;;;;;7.25;3.38;;;24.00;90.30;;;;;;4757634;30;20115;-92
2022/06/12 10:44:42;;;;;;;8.25;4.07;;;24.30;90.10;;;;;;4757648;30;20128;-89
2022/06/12 10:47:20;;;;;;;7.82;4.07;;;24.50;89.60;;;;;;4757462;30;20050;-92
2022/06/12 10:49:47;;;;;;;10.38;5.30;;;24.90;90.00;;;;;;4757785;30;20023;-91
2022/06/12 10:52:17;;;;;;;12.82;6.35;;;23.40;88.10;;;;;;4757372;30;20216;-89
2022/06/12 10:54:47;;;;;;;12.88;7.43;;;25.50;88.80;;;;;;4786428;30;20034;-87
2022/06/12 10:57:37;;;;;;;11.63;7.03;;;26.20;86.10;;;;;;4781212;30;20557;-86
2022/06/12 11:00:09;;;;;;;8.15;5.15;;;26.10;84.50;;;;;;4779524;30;20031;-86
2022/06/12 11:02:50;;;;;;;9.23;5.10;;;25.80;83.90;;;;;;4781869;30;20058;-90
2022/06/12 11:05:47;;;;;;;9.45;4.78;;;26.10;83.30;;;;;;4769362;30;20165;-85
2022/06/12 11:08:28;;;;;;;7.97;4.40;;;25.40;80.50;;;;;;4767212;30;20035;-87
2022/06/12 11:11:18;;;;;;;8.18;4.47;;;26.60;80.60;;;;;;4759200;30;20118;-89
2022/06/12 11:13:53;;;;;;;7.95;5.18;;;26.00;76.20;;;;;;4772827;30;20059;-85
2022/06/12 11:16:52;;;;;;;8.77;4.85;;;26.00;79.70;;;;;;4757393;30;20777;-85
2022/06/12 11:19:46;;;;;;;6.68;4.40;;;25.90;78.30;;;;;;4772796;30;20058;-83
2022/06/12 11:22:33;;;;;;;9.88;5.22;;;25.70;78.20;;;;;;4758266;30;20038;-89
2022/06/12 11:25:14;;;;;;;8.07;4.40;;;25.60;78.50;;;;;;4777950;30;20032;-89
2022/06/12 11:28:01;;;;;;;8.55;4.70;;;25.70;77.20;;;;;;4773531;30;20044;-88
2022/06/12 11:30:37;;;;;;;14.65;4.90;;;25.40;76.00;;;;;;4779302;30;20034;-91
2022/06/12 11:33:08;;;;;;;8.25;4.60;;;25.40;76.20;;;;;;4773621;30;20055;-86
2022/06/12 11:35:56;;;;;;;10.43;4.47;;;25.60;77.50;;;;;;4774285;30;20764;-89
2022/06/12 11:39:11;;;;;;;9.25;4.88;;;25.70;77.40;;;;;;4774096;30;20043;-89
2022/06/12 11:42:27;;;;;;;7.45;4.18;;;25.70;76.10;;;;;;4754709;30;20039;-89
2022/06/12 11:45:16;;;;;;;9.35;4.63;;;26.00;75.30;;;;;;4740509;30;20034;-89
2022/06/12 11:48:13;;;;;;;7.40;3.97;;;26.30;75.70;;;;;;4755008;30;20512;-86
2022/06/12 11:51:04;;;;;;;9.13;4.45;;;26.70;75.00;;;;;;4742001;29;20496;-84
2022/06/12 11:54:04;;;;;;;8.23;4.10;;;26.80;73.70;;;;;;4671953;30;20053;-84
2022/06/12 11:56:44;;;;;;;7.93;4.13;;;27.50;72.30;;;;;;4671599;30;20041;-88
2022/06/12 11:59:28;;;;;;;7.40;4.32;;;27.50;71.20;;;;;;4686412;30;20125;-85
2022/06/12 12:02:03;;;;;;;8.63;4.88;;;27.40;70.20;;;;;;4686088;30;20271;-86
2022/06/12 12:05:22;;;;;;;8.52;4.20;;;27.20;71.80;;;;;;4685899;30;20145;-88
2022/06/12 12:07:57;;;;;;;7.40;4.40;;;27.10;70.80;;;;;;4618528;30;20046;-87
2022/06/12 12:10:47;;;;;;;7.32;3.97;;;26.90;70.90;;;;;;4617449;31;20250;-86
2022/06/12 12:13:20;;;;;;;7.13;3.88;;;26.90;67.70;;;;;;4603618;31;20054;-84
2022/06/12 12:16:01;;;;;;;7.28;3.85;;;27.20;69.40;;;;;;4603862;31;20042;-87
2022/06/12 12:18:35;;;;;;;7.47;4.40;;;26.40;69.40;;;;;;4619263;30;20061;-85
2022/06/12 12:21:05;;;;;;;8.63;4.43;;;27.50;69.40;;;;;;4620075;30;20027;-87
2022/06/12 12:23:37;;;;;;;6.97;3.95;;;27.40;66.90;;;;;;4634436;30;20047;-85
2022/06/12 12:26:08;;;;;;;8.55;4.93;;;27.40;67.70;;;;;;4634212;30;20531;-83
2022/06/12 12:28:57;;;;;;;8.27;4.55;;;27.90;68.30;;;;;;4620217;30;20031;-89
2022/06/12 12:31:32;;;;;;;7.43;4.22;;;29.20;64.20;;;;;;4676111;30;20381;-85
2022/06/12 12:34:02;;;;;;;7.38;4.18;;;29.20;65.00;;;;;;4685197;30;20223;-87
2022/06/12 12:42:37;;;;;;;7.38;4.20;;;32.00;57.60;;;;;;4776220;30;20046;-86
2022/06/12 12:45:26;;;;;;;7.50;4.28;;;31.60;56.90;;;;;;4774215;30;20120;-89
2022/06/12 12:48:09;;;;;;;10.60;4.80;;;31.00;58.50;;;;;;4773766;30;20035;-86
2022/06/12 12:50:49;;;;;;;;;;;30.60;59.50;;;;;;4774717;30;20046;-83
2022/06/12 12:53:26;;;;;;;7.80;4.22;;;30.70;56.60;;;;;;4775950;30;20493;-85
2022/06/12 12:56:34;;;;;;;5.80;3.60;;;31.50;54.90;;;;;;4773641;30;20037;-86
2022/06/12 12:59:10;;;;;;;7.93;4.13;;;32.70;54.60;;;;;;4774192;29;20047;-85
2022/06/12 13:01:43;;;;;;;8.00;3.50;;;33.50;52.80;;;;;;4775558;30;20096;-87
2022/06/12 13:04:34;;;;;;;5.70;3.47;;;33.30;51.90;;;;;;4774439;30;20499;-88
2022/06/12 13:07:25;;;;;;;6.40;4.07;;;32.80;52.80;;;;;;4774032;30;20019;-85
2022/06/12 13:09:54;;;;;;;7.07;4.00;;;31.70;53.00;;;;;;4773887;30;20032;-87
2022/06/12 13:12:25;;;;;;;6.13;4.00;;;30.80;54.70;;;;;;4775175;30;20027;-85
2022/06/12 13:15:20;;;;;;;7.93;4.95;;;30.40;55.90;;;;;;4779443;30;20250;-86
2022/06/12 13:17:51;;;;;;;9.07;5.22;;;30.20;56.20;;;;;;4726214;30;20072;-84
2022/06/12 13:20:38;;;;;;;8.65;4.45;;;29.50;57.60;;;;;;4741470;30;20040;-84
2022/06/12 13:23:22;;;;;;;8.80;4.68;;;29.00;58.50;;;;;;4738005;30;20737;-85
2022/06/12 13:25:53;;;;;;;7.10;4.45;;;29.20;59.60;;;;;;4737339;30;20028;-85
2022/06/12 13:28:30;;;;;;;7.05;4.50;;;28.40;60.00;;;;;;4737586;30;20040;-86
2022/06/12 13:31:04;;;;;;;9.25;5.68;;;28.40;62.20;;;;;;4721901;30;20464;-88
2022/06/12 13:33:35;;;;;;;8.68;4.93;;;28.70;60.80;;;;;;4736455;30;20064;-86
2022/06/12 13:36:13;;;;;;;7.50;4.57;;;30.00;60.00;;;;;;4736380;30;20089;-87
2022/06/12 13:38:49;;;;;;;8.88;4.82;;;30.00;58.20;;;;;;4735886;30;20071;-87
2022/06/12 13:41:41;;;;;;;6.82;3.72;;;30.60;57.40;;;;;;4721204;30;20347;-88
2022/06/12 13:44:28;;;;;;;9.05;4.65;;;31.10;57.20;;;;;;4735956;30;20036;-86
2022/06/12 13:46:56;;;;;;;6.60;3.83;;;32.30;56.70;;;;;;4722275;30;20352;-84
2022/06/12 13:49:44;;;;;;;6.43;4.03;;;33.50;53.30;;;;;;4736912;30;20040;-85
2022/06/12 13:52:16;;;;;;;5.78;3.60;;;36.00;52.90;;;;;;4737151;30;20032;-83
2022/06/12 13:54:43;;;;;;;6.05;3.97;;;34.40;50.30;;;;;;4746144;30;20107;-86
2022/06/12 13:57:22;;;;;;;6.40;3.72;;;34.10;50.30;;;;;;4773702;30;20050;-87
2022/06/12 13:59:48;;;;;;;6.75;4.20;;;33.70;50.80;;;;;;4775083;30;20023;-86
2022/06/12 14:02:23;;;;;;;7.00;3.83;;;33.00;53.60;;;;;;4774135;29;20027;-84
2022/06/12 14:04:58;;;;;;;7.60;3.78;;;33.40;52.30;;;;;;4772685;30;20131;-83
2022/06/12 14:07:28;;;;;;;7.18;3.92;;;33.60;51.20;;;;;;4773145;30;20246;-83
2022/06/12 14:10:10;;;;;;;6.38;3.40;;;33.60;51.40;;;;;;4772199;30;20523;-86
2022/06/12 14:12:37;;;;;;;5.78;3.15;;;33.60;50.10;;;;;;4774395;30;20046;-86
2022/06/12 14:15:23;;;;;;;5.53;3.03;;;33.00;52.20;;;;;;4773001;30;20085;-87
2022/06/12 14:17:56;;;;;;;5.75;3.08;;;32.80;52.20;;;;;;4771297;30;20071;-86